Ingonish, Canada
Current Conditions -  °F | °C
As of 1:25 AM on Thursday 27 Nov 2014 (Local Time) from CYQY Reporting Station
Moderate Rain Moderate Rain  
Wind Chill: 27°   Ceiling: 400
Heat Index: 36°   Visibility: 4mi
Dew Point: 34°   Wind: 13mph
Humidity: 93%   Direction: 70°ENE
Pressure: 30"   Gusts: NA
Location:  46.69°N, 60.37°W
Report Text: CYQY 270525Z 07011KT 4SM RA BR BKN004 OVC007 02/01 A3000 RMK SC6SC2 PRESFR SLP162
Loading
Personal Weather Stations






























Interactive Weather Map New forecast layout! Learn more

10-Day Weather Forecast

Advertisements
Track Severe Weather on mobile